sensor_id;sensor_type;location;lat;lon;timestamp;temperature;humidity
59660;DHT22;45534;52.690;6.268;2022-07-29T00:02:12;15.70;99.90
59660;DHT22;45534;52.690;6.268;2022-07-29T00:04:38;15.60;99.90
59660;DHT22;45534;52.690;6.268;2022-07-29T00:07:04;15.60;99.90
59660;DHT22;45534;52.690;6.268;2022-07-29T00:09:31;15.60;99.90
59660;DHT22;45534;52.690;6.268;2022-07-29T00:12:00;15.60;99.90
59660;DHT22;45534;52.690;6.268;2022-07-29T00:14:26;15.60;99.90
59660;DHT22;45534;52.690;6.268;2022-07-29T00:16:52;15.60;99.90
59660;DHT22;45534;52.690;6.268;2022-07-29T00:19:18;15.60;99.90
59660;DHT22;45534;52.690;6.268;2022-07-29T00:21:43;15.60;99.90
59660;DHT22;45534;52.690;6.268;2022-07-29T00:24:09;15.50;99.90
59660;DHT22;45534;52.690;6.268;2022-07-29T00:26:35;15.50;99.90
59660;DHT22;45534;52.690;6.268;2022-07-29T00:29:02;15.50;99.90
59660;DHT22;45534;52.690;6.268;2022-07-29T00:31:28;15.50;99.90
59660;DHT22;45534;52.690;6.268;2022-07-29T00:33:54;15.50;99.90
59660;DHT22;45534;52.690;6.268;2022-07-29T00:36:20;15.50;99.90
59660;DHT22;45534;52.690;6.268;2022-07-29T00:38:50;15.40;99.90
59660;DHT22;45534;52.690;6.268;2022-07-29T00:41:16;15.40;99.90
59660;DHT22;45534;52.690;6.268;2022-07-29T00:43:43;15.40;99.90
59660;DHT22;45534;52.690;6.268;2022-07-29T00:46:09;15.40;99.90
59660;DHT22;45534;52.690;6.268;2022-07-29T00:48:35;15.40;99.90
59660;DHT22;45534;52.690;6.268;2022-07-29T00:51:05;15.40;99.90
59660;DHT22;45534;52.690;6.268;2022-07-29T00:53:31;15.40;99.90
59660;DHT22;45534;52.690;6.268;2022-07-29T00:55:58;15.40;99.90
59660;DHT22;45534;52.690;6.268;2022-07-29T00:58:24;15.40;99.90
59660;DHT22;45534;52.690;6.268;2022-07-29T01:00:51;15.40;99.90
59660;DHT22;45534;52.690;6.268;2022-07-29T01:03:18;15.40;99.90
59660;DHT22;45534;52.690;6.268;2022-07-29T01:05:45;15.40;99.90
59660;DHT22;45534;52.690;6.268;2022-07-29T01:08:14;15.40;99.90
59660;DHT22;45534;52.690;6.268;2022-07-29T01:10:41;15.40;99.90
59660;DHT22;45534;52.690;6.268;2022-07-29T01:13:07;15.40;99.90
59660;DHT22;45534;52.690;6.268;2022-07-29T01:15:41;15.40;99.90
59660;DHT22;45534;52.690;6.268;2022-07-29T01:18:22;15.40;99.90
59660;DHT22;45534;52.690;6.268;2022-07-29T01:23:51;15.40;99.90
59660;DHT22;45534;52.690;6.268;2022-07-29T01:26:45;15.40;99.90
59660;DHT22;45534;52.690;6.268;2022-07-29T01:29:27;15.40;99.90
59660;DHT22;45534;52.690;6.268;2022-07-29T01:31:56;15.40;99.90
59660;DHT22;45534;52.690;6.268;2022-07-29T01:35:43;15.40;99.90
59660;DHT22;45534;52.690;6.268;2022-07-29T01:37:55;15.40;99.90
59660;DHT22;45534;52.690;6.268;2022-07-29T01:40:29;15.40;99.90
59660;DHT22;45534;52.690;6.268;2022-07-29T01:42:58;15.40;99.90
59660;DHT22;45534;52.690;6.268;2022-07-29T01:45:47;15.40;99.90
59660;DHT22;45534;52.690;6.268;2022-07-29T01:48:19;15.40;99.90
59660;DHT22;45534;52.690;6.268;2022-07-29T01:50:49;15.40;99.90
59660;DHT22;45534;52.690;6.268;2022-07-29T01:53:37;15.40;99.90
59660;DHT22;45534;52.690;6.268;2022-07-29T01:56:04;15.40;99.90
59660;DHT22;45534;52.690;6.268;2022-07-29T01:58:32;15.40;99.90
59660;DHT22;45534;52.690;6.268;2022-07-29T02:01:00;15.40;99.90
59660;DHT22;45534;52.690;6.268;2022-07-29T02:03:28;15.30;99.90
59660;DHT22;45534;52.690;6.268;2022-07-29T02:05:56;15.40;99.90
59660;DHT22;45534;52.690;6.268;2022-07-29T02:08:24;15.30;99.90
59660;DHT22;45534;52.690;6.268;2022-07-29T02:10:51;15.30;99.90
59660;DHT22;45534;52.690;6.268;2022-07-29T02:13:18;15.30;99.90
59660;DHT22;45534;52.690;6.268;2022-07-29T02:15:46;15.30;99.90
59660;DHT22;45534;52.690;6.268;2022-07-29T02:18:19;15.30;99.90
59660;DHT22;45534;52.690;6.268;2022-07-29T02:20:48;15.30;99.90
59660;DHT22;45534;52.690;6.268;2022-07-29T02:23:19;15.30;99.90
59660;DHT22;45534;52.690;6.268;2022-07-29T02:25:48;15.30;99.90
59660;DHT22;45534;52.690;6.268;2022-07-29T02:28:15;15.30;99.90
59660;DHT22;45534;52.690;6.268;2022-07-29T02:30:42;15.30;99.90
59660;DHT22;45534;52.690;6.268;2022-07-29T02:33:10;15.30;99.90
59660;DHT22;45534;52.690;6.268;2022-07-29T02:35:39;15.20;99.90
59660;DHT22;45534;52.690;6.268;2022-07-29T02:38:05;15.20;99.90
59660;DHT22;45534;52.690;6.268;2022-07-29T02:40:50;15.20;99.90
59660;DHT22;45534;52.690;6.268;2022-07-29T02:43:17;15.20;99.90
59660;DHT22;45534;52.690;6.268;2022-07-29T02:45:45;15.20;99.90
59660;DHT22;45534;52.690;6.268;2022-07-29T02:48:15;15.20;99.90
59660;DHT22;45534;52.690;6.268;2022-07-29T02:50:49;15.20;99.90
59660;DHT22;45534;52.690;6.268;2022-07-29T02:53:23;15.20;99.90
59660;DHT22;45534;52.690;6.268;2022-07-29T02:55:56;15.20;99.90
59660;DHT22;45534;52.690;6.268;2022-07-29T02:58:27;15.20;99.90
59660;DHT22;45534;52.690;6.268;2022-07-29T03:00:55;15.20;99.90
59660;DHT22;45534;52.690;6.268;2022-07-29T03:03:21;15.10;99.90
59660;DHT22;45534;52.690;6.268;2022-07-29T03:05:47;15.10;99.90
59660;DHT22;45534;52.690;6.268;2022-07-29T03:08:15;15.10;99.90
59660;DHT22;45534;52.690;6.268;2022-07-29T03:10:44;15.10;99.90
59660;DHT22;45534;52.690;6.268;2022-07-29T03:13:11;15.10;99.90
59660;DHT22;45534;52.690;6.268;2022-07-29T03:15:38;15.10;99.90
59660;DHT22;45534;52.690;6.268;2022-07-29T03:18:05;15.00;99.90
59660;DHT22;45534;52.690;6.268;2022-07-29T03:20:32;15.00;99.90
59660;DHT22;45534;52.690;6.268;2022-07-29T03:22:58;15.00;99.90
59660;DHT22;45534;52.690;6.268;2022-07-29T03:25:23;15.00;99.90
59660;DHT22;45534;52.690;6.268;2022-07-29T03:27:49;15.00;99.90
59660;DHT22;45534;52.690;6.268;2022-07-29T03:30:15;15.00;99.90
59660;DHT22;45534;52.690;6.268;2022-07-29T03:32:44;15.00;99.90
59660;DHT22;45534;52.690;6.268;2022-07-29T03:35:09;14.90;99.90
59660;DHT22;45534;52.690;6.268;2022-07-29T03:37:35;14.90;99.90
59660;DHT22;45534;52.690;6.268;2022-07-29T03:40:04;14.90;99.90
59660;DHT22;45534;52.690;6.268;2022-07-29T03:42:32;14.90;99.90
59660;DHT22;45534;52.690;6.268;2022-07-29T03:45:03;14.80;99.90
59660;DHT22;45534;52.690;6.268;2022-07-29T03:47:31;14.80;99.90
59660;DHT22;45534;52.690;6.268;2022-07-29T03:50:06;14.80;99.90
59660;DHT22;45534;52.690;6.268;2022-07-29T03:52:32;14.80;99.90
59660;DHT22;45534;52.690;6.268;2022-07-29T03:54:58;14.80;99.90
59660;DHT22;45534;52.690;6.268;2022-07-29T03:57:27;14.70;99.90
59660;DHT22;45534;52.690;6.268;2022-07-29T03:59:54;14.70;99.90
59660;DHT22;45534;52.690;6.268;2022-07-29T04:02:20;14.70;99.90
59660;DHT22;45534;52.690;6.268;2022-07-29T04:04:47;14.70;99.90
59660;DHT22;45534;52.690;6.268;2022-07-29T04:07:13;14.60;99.90
59660;DHT22;45534;52.690;6.268;2022-07-29T04:09:40;14.60;99.90
59660;DHT22;45534;52.690;6.268;2022-07-29T04:12:06;14.60;99.90
59660;DHT22;45534;52.690;6.268;2022-07-29T04:14:32;14.60;99.90
59660;DHT22;45534;52.690;6.268;2022-07-29T04:16:59;14.50;99.90
59660;DHT22;45534;52.690;6.268;2022-07-29T04:19:25;14.50;99.90
59660;DHT22;45534;52.690;6.268;2022-07-29T04:21:50;14.50;99.90
59660;DHT22;45534;52.690;6.268;2022-07-29T04:24:16;14.50;99.90
59660;DHT22;45534;52.690;6.268;2022-07-29T04:26:42;14.50;99.90
59660;DHT22;45534;52.690;6.268;2022-07-29T04:29:08;14.50;99.90
59660;DHT22;45534;52.690;6.268;2022-07-29T04:31:33;14.40;99.90
59660;DHT22;45534;52.690;6.268;2022-07-29T04:33:59;14.50;99.90
59660;DHT22;45534;52.690;6.268;2022-07-29T04:36:25;14.40;99.90
59660;DHT22;45534;52.690;6.268;2022-07-29T04:38:50;14.40;99.90
59660;DHT22;45534;52.690;6.268;2022-07-29T04:41:16;14.40;99.90
59660;DHT22;45534;52.690;6.268;2022-07-29T04:43:41;14.40;99.90
59660;DHT22;45534;52.690;6.268;2022-07-29T04:46:07;14.40;99.90
59660;DHT22;45534;52.690;6.268;2022-07-29T04:48:33;14.40;99.90
59660;DHT22;45534;52.690;6.268;2022-07-29T04:50:59;14.40;99.90
59660;DHT22;45534;52.690;6.268;2022-07-29T04:53:25;14.50;99.90
59660;DHT22;45534;52.690;6.268;2022-07-29T04:55:51;14.40;99.90
59660;DHT22;45534;52.690;6.268;2022-07-29T04:58:17;14.50;99.90
59660;DHT22;45534;52.690;6.268;2022-07-29T05:00:43;14.50;99.90
59660;DHT22;45534;52.690;6.268;2022-07-29T05:03:08;14.50;99.90
59660;DHT22;45534;52.690;6.268;2022-07-29T05:05:34;14.50;99.90
59660;DHT22;45534;52.690;6.268;2022-07-29T05:08:00;14.50;99.90
59660;DHT22;45534;52.690;6.268;2022-07-29T05:10:25;14.60;99.90
59660;DHT22;45534;52.690;6.268;2022-07-29T05:12:51;14.60;99.90
59660;DHT22;45534;52.690;6.268;2022-07-29T05:15:17;14.60;99.90
59660;DHT22;45534;52.690;6.268;2022-07-29T05:17:44;14.60;99.90
59660;DHT22;45534;52.690;6.268;2022-07-29T05:20:10;14.70;99.90
59660;DHT22;45534;52.690;6.268;2022-07-29T05:22:35;14.70;99.90
59660;DHT22;45534;52.690;6.268;2022-07-29T05:25:01;14.70;99.90
59660;DHT22;45534;52.690;6.268;2022-07-29T05:27:27;14.70;99.90
59660;DHT22;45534;52.690;6.268;2022-07-29T05:29:53;14.80;99.90
59660;DHT22;45534;52.690;6.268;2022-07-29T05:32:19;14.80;99.90
59660;DHT22;45534;52.690;6.268;2022-07-29T05:34:45;14.80;99.90
59660;DHT22;45534;52.690;6.268;2022-07-29T05:37:10;14.80;99.90
59660;DHT22;45534;52.690;6.268;2022-07-29T05:39:39;14.80;99.90
59660;DHT22;45534;52.690;6.268;2022-07-29T05:42:10;14.80;99.90
59660;DHT22;45534;52.690;6.268;2022-07-29T05:44:38;14.90;99.90
59660;DHT22;45534;52.690;6.268;2022-07-29T05:47:04;14.90;99.90
59660;DHT22;45534;52.690;6.268;2022-07-29T05:49:30;15.00;99.90
59660;DHT22;45534;52.690;6.268;2022-07-29T05:51:56;15.00;99.90
59660;DHT22;45534;52.690;6.268;2022-07-29T05:54:22;15.10;99.90
59660;DHT22;45534;52.690;6.268;2022-07-29T05:56:47;15.10;99.90
59660;DHT22;45534;52.690;6.268;2022-07-29T05:59:13;15.20;99.90
59660;DHT22;45534;52.690;6.268;2022-07-29T06:01:39;15.20;99.90
59660;DHT22;45534;52.690;6.268;2022-07-29T06:04:06;15.30;99.90
59660;DHT22;45534;52.690;6.268;2022-07-29T06:06:32;15.30;99.90
59660;DHT22;45534;52.690;6.268;2022-07-29T06:08:59;15.30;99.90
59660;DHT22;45534;52.690;6.268;2022-07-29T06:11:25;15.40;99.90
59660;DHT22;45534;52.690;6.268;2022-07-29T06:13:50;15.40;99.90
59660;DHT22;45534;52.690;6.268;2022-07-29T06:16:16;15.40;99.90
59660;DHT22;45534;52.690;6.268;2022-07-29T06:18:42;15.40;99.90
59660;DHT22;45534;52.690;6.268;2022-07-29T06:21:08;15.40;99.90
59660;DHT22;45534;52.690;6.268;2022-07-29T06:23:38;15.40;99.90
59660;DHT22;45534;52.690;6.268;2022-07-29T06:26:04;15.40;99.90
59660;DHT22;45534;52.690;6.268;2022-07-29T06:28:30;15.40;99.90
59660;DHT22;45534;52.690;6.268;2022-07-29T06:30:56;15.40;99.90
59660;DHT22;45534;52.690;6.268;2022-07-29T06:33:22;15.40;99.90
59660;DHT22;45534;52.690;6.268;2022-07-29T06:35:48;15.40;99.90
59660;DHT22;45534;52.690;6.268;2022-07-29T06:38:15;15.50;99.90
59660;DHT22;45534;52.690;6.268;2022-07-29T06:40:45;15.50;99.90
59660;DHT22;45534;52.690;6.268;2022-07-29T06:43:36;15.50;99.90
59660;DHT22;45534;52.690;6.268;2022-07-29T06:46:07;15.50;99.90
59660;DHT22;45534;52.690;6.268;2022-07-29T06:48:34;15.60;99.90
59660;DHT22;45534;52.690;6.268;2022-07-29T06:51:02;15.60;99.90
59660;DHT22;45534;52.690;6.268;2022-07-29T06:53:28;15.70;99.90
59660;DHT22;45534;52.690;6.268;2022-07-29T06:55:54;15.80;99.90
59660;DHT22;45534;52.690;6.268;2022-07-29T06:58:20;15.90;99.90
59660;DHT22;45534;52.690;6.268;2022-07-29T07:00:47;15.90;99.90
59660;DHT22;45534;52.690;6.268;2022-07-29T07:03:14;15.90;99.90
59660;DHT22;45534;52.690;6.268;2022-07-29T07:05:40;16.00;99.90
59660;DHT22;45534;52.690;6.268;2022-07-29T07:08:06;16.00;99.90
59660;DHT22;45534;52.690;6.268;2022-07-29T07:10:32;16.00;99.90
59660;DHT22;45534;52.690;6.268;2022-07-29T07:12:58;16.00;99.90
59660;DHT22;45534;52.690;6.268;2022-07-29T07:15:24;16.00;99.90
59660;DHT22;45534;52.690;6.268;2022-07-29T07:17:50;16.10;99.90
59660;DHT22;45534;52.690;6.268;2022-07-29T07:20:16;16.00;99.90
59660;DHT22;45534;52.690;6.268;2022-07-29T07:22:42;16.00;99.90
59660;DHT22;45534;52.690;6.268;2022-07-29T07:25:08;15.90;99.90
59660;DHT22;45534;52.690;6.268;2022-07-29T07:27:36;16.00;99.90
59660;DHT22;45534;52.690;6.268;2022-07-29T07:30:03;16.00;99.90
59660;DHT22;45534;52.690;6.268;2022-07-29T07:32:31;16.00;99.90
59660;DHT22;45534;52.690;6.268;2022-07-29T07:34:57;16.00;99.90
59660;DHT22;45534;52.690;6.268;2022-07-29T07:37:24;16.00;99.90
59660;DHT22;45534;52.690;6.268;2022-07-29T07:39:51;16.00;99.90
59660;DHT22;45534;52.690;6.268;2022-07-29T07:42:17;16.00;99.90
59660;DHT22;45534;52.690;6.268;2022-07-29T07:44:43;16.00;99.90
59660;DHT22;45534;52.690;6.268;2022-07-29T07:47:08;16.00;99.90
59660;DHT22;45534;52.690;6.268;2022-07-29T07:49:34;16.00;99.90
59660;DHT22;45534;52.690;6.268;2022-07-29T07:52:00;16.00;99.90
59660;DHT22;45534;52.690;6.268;2022-07-29T07:54:25;16.00;99.90
59660;DHT22;45534;52.690;6.268;2022-07-29T07:56:51;16.00;99.90
59660;DHT22;45534;52.690;6.268;2022-07-29T07:59:17;16.10;99.90
59660;DHT22;45534;52.690;6.268;2022-07-29T08:01:43;16.10;99.90
59660;DHT22;45534;52.690;6.268;2022-07-29T08:04:09;16.10;99.90
59660;DHT22;45534;52.690;6.268;2022-07-29T08:06:35;16.20;99.90
59660;DHT22;45534;52.690;6.268;2022-07-29T08:09:03;16.30;99.90
59660;DHT22;45534;52.690;6.268;2022-07-29T08:11:29;16.30;99.90
59660;DHT22;45534;52.690;6.268;2022-07-29T08:13:55;16.30;99.90
59660;DHT22;45534;52.690;6.268;2022-07-29T08:16:21;16.40;99.90
59660;DHT22;45534;52.690;6.268;2022-07-29T08:18:47;16.50;99.90
59660;DHT22;45534;52.690;6.268;2022-07-29T08:21:16;16.60;99.90
59660;DHT22;45534;52.690;6.268;2022-07-29T08:23:44;16.60;99.90
59660;DHT22;45534;52.690;6.268;2022-07-29T08:26:16;16.60;99.90
59660;DHT22;45534;52.690;6.268;2022-07-29T08:28:43;16.70;99.90
59660;DHT22;45534;52.690;6.268;2022-07-29T08:31:15;16.70;99.90
59660;DHT22;45534;52.690;6.268;2022-07-29T08:33:42;16.70;99.90
59660;DHT22;45534;52.690;6.268;2022-07-29T08:36:08;16.80;99.90
59660;DHT22;45534;52.690;6.268;2022-07-29T08:38:33;16.80;99.90
59660;DHT22;45534;52.690;6.268;2022-07-29T08:41:02;16.90;99.90
59660;DHT22;45534;52.690;6.268;2022-07-29T08:43:28;16.90;99.90
59660;DHT22;45534;52.690;6.268;2022-07-29T08:45:54;17.00;99.90
59660;DHT22;45534;52.690;6.268;2022-07-29T08:48:24;17.10;99.90
59660;DHT22;45534;52.690;6.268;2022-07-29T08:50:52;17.20;99.90
59660;DHT22;45534;52.690;6.268;2022-07-29T08:53:19;17.20;99.90
59660;DHT22;45534;52.690;6.268;2022-07-29T08:55:48;17.30;99.90
59660;DHT22;45534;52.690;6.268;2022-07-29T08:58:15;17.30;99.90
59660;DHT22;45534;52.690;6.268;2022-07-29T09:00:48;17.40;99.90
59660;DHT22;45534;52.690;6.268;2022-07-29T09:03:18;17.40;99.90
59660;DHT22;45534;52.690;6.268;2022-07-29T09:05:48;17.40;99.90
59660;DHT22;45534;52.690;6.268;2022-07-29T09:08:15;17.40;99.90
59660;DHT22;45534;52.690;6.268;2022-07-29T09:10:42;17.40;99.90
59660;DHT22;45534;52.690;6.268;2022-07-29T09:13:08;17.50;99.90
59660;DHT22;45534;52.690;6.268;2022-07-29T09:15:33;17.50;99.90
59660;DHT22;45534;52.690;6.268;2022-07-29T09:17:59;17.60;99.90
59660;DHT22;45534;52.690;6.268;2022-07-29T09:20:26;17.60;99.90
59660;DHT22;45534;52.690;6.268;2022-07-29T09:23:12;17.80;99.90
59660;DHT22;45534;52.690;6.268;2022-07-29T09:25:40;17.90;99.90
59660;DHT22;45534;52.690;6.268;2022-07-29T09:28:16;18.00;99.90
59660;DHT22;45534;52.690;6.268;2022-07-29T09:30:56;18.10;99.90
59660;DHT22;45534;52.690;6.268;2022-07-29T09:33:30;18.20;99.90
59660;DHT22;45534;52.690;6.268;2022-07-29T09:36:07;18.30;99.90
59660;DHT22;45534;52.690;6.268;2022-07-29T09:38:33;18.40;99.90
59660;DHT22;45534;52.690;6.268;2022-07-29T09:41:02;18.50;99.90
59660;DHT22;45534;52.690;6.268;2022-07-29T09:43:27;18.50;99.90
59660;DHT22;45534;52.690;6.268;2022-07-29T09:45:54;18.60;99.90
59660;DHT22;45534;52.690;6.268;2022-07-29T09:48:24;18.70;99.90
59660;DHT22;45534;52.690;6.268;2022-07-29T09:50:50;18.70;99.90
59660;DHT22;45534;52.690;6.268;2022-07-29T09:53:34;18.80;99.90
59660;DHT22;45534;52.690;6.268;2022-07-29T09:56:00;18.90;99.90
59660;DHT22;45534;52.690;6.268;2022-07-29T09:58:26;18.90;99.90
59660;DHT22;45534;52.690;6.268;2022-07-29T10:00:54;18.90;99.90
59660;DHT22;45534;52.690;6.268;2022-07-29T10:03:20;18.90;99.90
59660;DHT22;45534;52.690;6.268;2022-07-29T10:05:47;19.00;99.90
59660;DHT22;45534;52.690;6.268;2022-07-29T10:08:28;19.30;99.90
59660;DHT22;45534;52.690;6.268;2022-07-29T10:11:12;19.50;99.90
59660;DHT22;45534;52.690;6.268;2022-07-29T10:13:38;19.70;99.90
59660;DHT22;45534;52.690;6.268;2022-07-29T10:16:05;19.90;99.90
59660;DHT22;45534;52.690;6.268;2022-07-29T10:18:32;20.10;99.90
59660;DHT22;45534;52.690;6.268;2022-07-29T10:20:58;20.10;99.90
59660;DHT22;45534;52.690;6.268;2022-07-29T10:23:27;20.00;99.90
59660;DHT22;45534;52.690;6.268;2022-07-29T10:25:54;20.00;99.90
59660;DHT22;45534;52.690;6.268;2022-07-29T10:28:19;19.90;99.90
59660;DHT22;45534;52.690;6.268;2022-07-29T10:30:45;19.80;99.90
59660;DHT22;45534;52.690;6.268;2022-07-29T10:33:51;19.80;99.90
59660;DHT22;45534;52.690;6.268;2022-07-29T10:36:48;19.90;99.90
59660;DHT22;45534;52.690;6.268;2022-07-29T10:39:27;20.00;99.90
59660;DHT22;45534;52.690;6.268;2022-07-29T10:42:16;20.10;99.90
59660;DHT22;45534;52.690;6.268;2022-07-29T10:44:43;20.40;99.90
59660;DHT22;45534;52.690;6.268;2022-07-29T10:47:27;20.50;99.90
59660;DHT22;45534;52.690;6.268;2022-07-29T10:50:00;20.60;99.90
59660;DHT22;45534;52.690;6.268;2022-07-29T10:52:55;20.50;99.90
59660;DHT22;45534;52.690;6.268;2022-07-29T10:55:38;20.60;99.90
59660;DHT22;45534;52.690;6.268;2022-07-29T10:58:21;20.70;99.90
59660;DHT22;45534;52.690;6.268;2022-07-29T11:00:52;20.80;99.90
59660;DHT22;45534;52.690;6.268;2022-07-29T11:06:06;21.10;99.90
59660;DHT22;45534;52.690;6.268;2022-07-29T11:08:31;21.20;99.90
59660;DHT22;45534;52.690;6.268;2022-07-29T11:13:45;21.40;99.90
59660;DHT22;45534;52.690;6.268;2022-07-29T11:16:16;21.40;99.90
59660;DHT22;45534;52.690;6.268;2022-07-29T11:21:43;21.70;99.90
59660;DHT22;45534;52.690;6.268;2022-07-29T11:24:38;21.90;99.90
59660;DHT22;45534;52.690;6.268;2022-07-29T11:27:19;22.20;99.90
59660;DHT22;45534;52.690;6.268;2022-07-29T11:32:16;22.50;97.70
59660;DHT22;45534;52.690;6.268;2022-07-29T11:34:43;22.50;98.50
59660;DHT22;45534;52.690;6.268;2022-07-29T11:39:47;22.10;98.10
59660;DHT22;45534;52.690;6.268;2022-07-29T11:47:47;22.90;96.80
59660;DHT22;45534;52.690;6.268;2022-07-29T11:50:17;22.90;96.70
59660;DHT22;45534;52.690;6.268;2022-07-29T11:52:47;23.10;98.30
59660;DHT22;45534;52.690;6.268;2022-07-29T11:55:18;23.50;99.90
59660;DHT22;45534;52.690;6.268;2022-07-29T11:57:55;24.00;99.80
59660;DHT22;45534;52.690;6.268;2022-07-29T12:00:40;24.40;94.50
59660;DHT22;45534;52.690;6.268;2022-07-29T12:03:10;24.60;94.40
59660;DHT22;45534;52.690;6.268;2022-07-29T12:05:42;24.70;93.00
59660;DHT22;45534;52.690;6.268;2022-07-29T12:08:16;24.60;91.50
59660;DHT22;45534;52.690;6.268;2022-07-29T12:10:46;24.40;95.50
59660;DHT22;45534;52.690;6.268;2022-07-29T12:13:13;24.70;95.70
59660;DHT22;45534;52.690;6.268;2022-07-29T12:15:39;25.00;97.70
59660;DHT22;45534;52.690;6.268;2022-07-29T12:18:19;25.40;96.10
59660;DHT22;45534;52.690;6.268;2022-07-29T12:20:46;25.80;95.40
59660;DHT22;45534;52.690;6.268;2022-07-29T12:23:13;26.00;95.20
59660;DHT22;45534;52.690;6.268;2022-07-29T12:25:40;26.10;90.90
59660;DHT22;45534;52.690;6.268;2022-07-29T12:28:09;26.20;90.90
59660;DHT22;45534;52.690;6.268;2022-07-29T12:30:39;26.10;88.30
59660;DHT22;45534;52.690;6.268;2022-07-29T12:35:56;26.10;88.50
59660;DHT22;45534;52.690;6.268;2022-07-29T12:38:22;26.20;89.70
59660;DHT22;45534;52.690;6.268;2022-07-29T12:40:49;26.30;90.50
59660;DHT22;45534;52.690;6.268;2022-07-29T12:43:20;26.50;90.60
59660;DHT22;45534;52.690;6.268;2022-07-29T12:45:54;26.60;84.60
59660;DHT22;45534;52.690;6.268;2022-07-29T12:48:40;26.70;75.10
59660;DHT22;45534;52.690;6.268;2022-07-29T12:51:07;26.70;69.80
59660;DHT22;45534;52.690;6.268;2022-07-29T12:53:34;26.60;71.60
59660;DHT22;45534;52.690;6.268;2022-07-29T12:56:01;26.30;64.10
59660;DHT22;45534;52.690;6.268;2022-07-29T12:58:34;25.90;60.40
59660;DHT22;45534;52.690;6.268;2022-07-29T13:01:03;25.80;63.30
59660;DHT22;45534;52.690;6.268;2022-07-29T13:04:02;25.90;77.20
59660;DHT22;45534;52.690;6.268;2022-07-29T13:09:13;26.60;78.30
59660;DHT22;45534;52.690;6.268;2022-07-29T13:11:43;26.80;80.00
59660;DHT22;45534;52.690;6.268;2022-07-29T13:14:30;26.90;84.70
59660;DHT22;45534;52.690;6.268;2022-07-29T13:17:19;26.90;80.90
59660;DHT22;45534;52.690;6.268;2022-07-29T13:19:51;26.90;75.90
59660;DHT22;45534;52.690;6.268;2022-07-29T13:22:19;26.70;70.30
59660;DHT22;45534;52.690;6.268;2022-07-29T13:24:58;26.60;78.40
59660;DHT22;45534;52.690;6.268;2022-07-29T13:27:27;26.90;76.40
59660;DHT22;45534;52.690;6.268;2022-07-29T13:29:55;27.00;75.50
59660;DHT22;45534;52.690;6.268;2022-07-29T13:32:26;27.10;73.40
59660;DHT22;45534;52.690;6.268;2022-07-29T13:34:52;27.20;71.60
59660;DHT22;45534;52.690;6.268;2022-07-29T13:37:19;27.50;66.40
59660;DHT22;45534;52.690;6.268;2022-07-29T13:39:45;27.70;67.20
59660;DHT22;45534;52.690;6.268;2022-07-29T13:42:11;27.80;67.90
59660;DHT22;45534;52.690;6.268;2022-07-29T13:44:40;27.80;66.80
59660;DHT22;45534;52.690;6.268;2022-07-29T13:47:08;28.00;65.60
59660;DHT22;45534;52.690;6.268;2022-07-29T13:49:34;28.00;58.00
59660;DHT22;45534;52.690;6.268;2022-07-29T13:52:00;28.10;60.30
59660;DHT22;45534;52.690;6.268;2022-07-29T13:54:26;28.20;59.30
59660;DHT22;45534;52.690;6.268;2022-07-29T13:56:52;28.20;57.90
59660;DHT22;45534;52.690;6.268;2022-07-29T13:59:19;28.20;57.00
59660;DHT22;45534;52.690;6.268;2022-07-29T14:01:45;28.30;57.20
59660;DHT22;45534;52.690;6.268;2022-07-29T14:04:11;28.50;55.30
59660;DHT22;45534;52.690;6.268;2022-07-29T14:06:37;28.40;55.10
59660;DHT22;45534;52.690;6.268;2022-07-29T14:09:04;28.10;54.30
59660;DHT22;45534;52.690;6.268;2022-07-29T14:11:34;28.00;54.80
59660;DHT22;45534;52.690;6.268;2022-07-29T14:14:00;27.80;55.00
59660;DHT22;45534;52.690;6.268;2022-07-29T14:16:25;27.50;54.20
59660;DHT22;45534;52.690;6.268;2022-07-29T14:18:52;27.60;55.40
59660;DHT22;45534;52.690;6.268;2022-07-29T14:21:17;27.90;55.90
59660;DHT22;45534;52.690;6.268;2022-07-29T14:23:43;28.10;56.80
59660;DHT22;45534;52.690;6.268;2022-07-29T14:26:09;28.50;54.00
59660;DHT22;45534;52.690;6.268;2022-07-29T14:28:35;28.60;52.90
59660;DHT22;45534;52.690;6.268;2022-07-29T14:31:01;28.80;53.30
59660;DHT22;45534;52.690;6.268;2022-07-29T14:33:27;29.00;51.50
59660;DHT22;45534;52.690;6.268;2022-07-29T14:35:52;29.20;50.60
59660;DHT22;45534;52.690;6.268;2022-07-29T14:38:18;29.20;49.20
59660;DHT22;45534;52.690;6.268;2022-07-29T14:40:44;29.10;48.70
59660;DHT22;45534;52.690;6.268;2022-07-29T14:43:10;28.90;48.80
59660;DHT22;45534;52.690;6.268;2022-07-29T14:45:36;28.80;50.20
59660;DHT22;45534;52.690;6.268;2022-07-29T14:48:01;28.80;49.70
59660;DHT22;45534;52.690;6.268;2022-07-29T14:50:27;28.70;49.40
59660;DHT22;45534;52.690;6.268;2022-07-29T14:52:53;28.80;48.60
59660;DHT22;45534;52.690;6.268;2022-07-29T14:55:19;28.80;48.40
59660;DHT22;45534;52.690;6.268;2022-07-29T14:57:45;28.80;48.00
59660;DHT22;45534;52.690;6.268;2022-07-29T15:00:11;28.90;46.70
59660;DHT22;45534;52.690;6.268;2022-07-29T15:02:37;29.00;46.90
59660;DHT22;45534;52.690;6.268;2022-07-29T15:05:03;29.10;47.60
59660;DHT22;45534;52.690;6.268;2022-07-29T15:07:29;29.10;47.10
59660;DHT22;45534;52.690;6.268;2022-07-29T15:09:54;29.10;47.70
59660;DHT22;45534;52.690;6.268;2022-07-29T15:12:20;29.20;47.00
59660;DHT22;45534;52.690;6.268;2022-07-29T15:14:46;29.10;47.30
59660;DHT22;45534;52.690;6.268;2022-07-29T15:17:11;29.10;47.50
59660;DHT22;45534;52.690;6.268;2022-07-29T15:19:37;29.20;46.90
59660;DHT22;45534;52.690;6.268;2022-07-29T15:22:03;29.10;46.80
59660;DHT22;45534;52.690;6.268;2022-07-29T15:24:30;29.00;47.00
59660;DHT22;45534;52.690;6.268;2022-07-29T15:26:56;28.80;47.30
59660;DHT22;45534;52.690;6.268;2022-07-29T15:29:22;28.70;47.40
59660;DHT22;45534;52.690;6.268;2022-07-29T15:31:47;28.70;46.90
59660;DHT22;45534;52.690;6.268;2022-07-29T15:34:16;28.60;47.60
59660;DHT22;45534;52.690;6.268;2022-07-29T15:36:42;28.50;47.90
59660;DHT22;45534;52.690;6.268;2022-07-29T15:39:07;28.50;47.90
59660;DHT22;45534;52.690;6.268;2022-07-29T15:41:34;28.40;47.80
59660;DHT22;45534;52.690;6.268;2022-07-29T15:44:00;28.50;48.10
59660;DHT22;45534;52.690;6.268;2022-07-29T15:46:26;28.70;47.60
59660;DHT22;45534;52.690;6.268;2022-07-29T15:49:10;28.70;47.30
59660;DHT22;45534;52.690;6.268;2022-07-29T15:51:35;28.70;47.80
59660;DHT22;45534;52.690;6.268;2022-07-29T15:54:03;28.70;47.80
59660;DHT22;45534;52.690;6.268;2022-07-29T15:56:29;28.70;46.80
59660;DHT22;45534;52.690;6.268;2022-07-29T15:58:55;28.60;48.00
59660;DHT22;45534;52.690;6.268;2022-07-29T16:01:20;28.50;47.40
59660;DHT22;45534;52.690;6.268;2022-07-29T16:03:46;28.70;47.30
59660;DHT22;45534;52.690;6.268;2022-07-29T16:06:12;29.00;47.10
59660;DHT22;45534;52.690;6.268;2022-07-29T16:08:38;29.20;46.50